Time;durP1;ratioP1;P1;durP2;ratioP2;P2;SDS_P1;SDS_P2;PMS_P1;PMS_P2;Temp;Humidity;BMP_temperature;BMP_pressure;BME280_temperature;BME280_humidity;BME280_pressure;Samples;Min_cycle;Max_cycle;Signal;HPM_P1;HPM_P2
2021/12/10 00:05:33;;;;;;;12.18;8.20;;;6.50;85.60;;;;;;10827719;33;20052;-71
2021/12/10 00:11:44;;;;;;;12.57;8.70;;;6.30;85.90;;;;;;10827441;33;20023;-71
2021/12/10 00:17:48;;;;;;;19.55;12.57;;;6.30;86.20;;;;;;10827212;33;20094;-71
2021/12/10 00:23:51;;;;;;;18.15;12.13;;;6.50;85.90;;;;;;10826943;32;20038;-71
2021/12/10 00:30:02;;;;;;;15.27;10.65;;;6.70;85.90;;;;;;10827070;33;20336;-71
2021/12/10 00:36:08;;;;;;;15.10;9.95;;;6.70;85.60;;;;;;10826889;32;20032;-71
2021/12/10 00:42:32;;;;;;;13.52;7.90;;;6.70;85.70;;;;;;10820053;32;20024;-71
2021/12/10 00:48:35;;;;;;;13.68;8.77;;;6.70;85.60;;;;;;10823864;33;20341;-69
2021/12/10 00:54:38;;;;;;;17.02;10.98;;;6.70;85.40;;;;;;10826333;32;20054;-71
2021/12/10 01:00:46;;;;;;;18.40;12.68;;;6.70;85.40;;;;;;10826005;33;20084;-70
2021/12/10 01:06:51;;;;;;;16.70;10.40;;;6.80;85.70;;;;;;10825779;33;20054;-71
2021/12/10 01:12:56;;;;;;;14.30;10.55;;;6.90;85.80;;;;;;10825847;33;20328;-71
2021/12/10 01:25:41;;;;;;;17.15;10.00;;;6.90;85.70;;;;;;10825586;33;20019;-71
2021/12/10 01:31:45;;;;;;;18.40;12.68;;;6.60;85.60;;;;;;10825399;33;20024;-71
2021/12/10 01:37:58;;;;;;;19.02;12.27;;;6.70;85.80;;;;;;10824655;33;20050;-71
2021/12/10 01:44:15;;;;;;;19.02;12.18;;;6.70;85.80;;;;;;10828364;27;20105;-72
2021/12/10 01:50:17;;;;;;;24.63;16.12;;;6.80;86.00;;;;;;10824872;33;20035;-71
2021/12/10 01:56:25;;;;;;;18.12;12.18;;;6.80;86.00;;;;;;10824656;33;20027;-71
2021/12/10 02:02:31;;;;;;;20.00;12.23;;;6.80;85.90;;;;;;10824460;33;20032;-71
2021/12/10 02:08:33;;;;;;;38.17;16.27;;;6.80;86.10;;;;;;10823692;33;20028;-71
2021/12/10 02:14:36;;;;;;;19.42;13.27;;;6.80;86.30;;;;;;10824191;33;20405;-71
2021/12/10 02:21:04;;;;;;;17.70;12.43;;;6.80;86.20;;;;;;10824070;33;20027;-71
2021/12/10 02:27:08;;;;;;;18.40;13.13;;;6.80;86.40;;;;;;10823705;32;20020;-71
2021/12/10 02:33:11;;;;;;;15.48;11.43;;;6.80;86.10;;;;;;10825178;33;20050;-72
2021/12/10 02:39:16;;;;;;;15.15;11.10;;;6.60;85.90;;;;;;10824985;33;20039;-71
2021/12/10 02:45:22;;;;;;;18.98;13.23;;;6.50;85.90;;;;;;10825875;32;20027;-71
2021/12/10 02:51:24;;;;;;;17.37;12.23;;;6.50;85.80;;;;;;10832872;32;20040;-71
2021/12/10 02:57:27;;;;;;;16.27;10.55;;;6.50;85.60;;;;;;10832573;32;20101;-71
2021/12/10 03:03:30;;;;;;;10.85;7.60;;;6.50;85.60;;;;;;10803797;32;20035;-71
2021/12/10 03:09:32;;;;;;;15.32;8.65;;;6.40;85.60;;;;;;10790216;33;20392;-71
2021/12/10 03:15:35;;;;;;;15.95;11.27;;;6.30;85.50;;;;;;10792270;33;20028;-71
2021/12/10 03:21:39;;;;;;;13.15;8.80;;;6.30;85.40;;;;;;10792058;33;20082;-71
2021/12/10 03:27:42;;;;;;;15.45;8.30;;;6.30;85.30;;;;;;10791930;33;20344;-71
2021/12/10 03:33:46;;;;;;;16.30;12.40;;;6.20;85.10;;;;;;10791725;33;20376;-71
2021/12/10 03:39:50;;;;;;;16.35;12.25;;;6.20;85.10;;;;;;10791802;33;20028;-71
2021/12/10 03:45:55;;;;;;;16.70;11.10;;;6.20;85.20;;;;;;10818546;33;20020;-71
2021/12/10 03:51:57;;;;;;;13.82;10.38;;;6.20;85.20;;;;;;10829166;33;20063;-71
2021/12/10 03:57:59;;;;;;;12.48;8.65;;;6.20;85.20;;;;;;10827343;32;20031;-70
2021/12/10 04:04:04;;;;;;;11.52;8.70;;;6.10;85.20;;;;;;10827651;33;20024;-71
2021/12/10 04:10:10;;;;;;;12.02;8.00;;;6.10;85.10;;;;;;10827654;33;20440;-71
2021/12/10 04:16:12;;;;;;;13.68;8.68;;;6.00;84.90;;;;;;10824694;32;20032;-71
2021/12/10 04:22:15;;;;;;;11.85;7.80;;;5.70;84.90;;;;;;10827067;33;20027;-71
2021/12/10 04:28:20;;;;;;;12.43;7.60;;;5.50;85.40;;;;;;10822762;33;20082;-71
2021/12/10 04:34:23;;;;;;;10.25;7.35;;;5.60;85.30;;;;;;10826812;33;20046;-71
2021/12/10 04:40:25;;;;;;;13.48;8.57;;;5.60;85.10;;;;;;10826700;33;20032;-71
2021/12/10 04:46:28;;;;;;;11.48;8.35;;;5.60;85.00;;;;;;10826451;33;20038;-71
2021/12/10 04:52:31;;;;;;;8.90;6.47;;;5.60;84.70;;;;;;10826589;33;20320;-71
2021/12/10 04:58:33;;;;;;;12.35;8.30;;;5.50;84.90;;;;;;10812972;33;20062;-71
2021/12/10 05:04:36;;;;;;;11.98;7.65;;;5.50;84.70;;;;;;10826032;33;20032;-71
2021/12/10 05:10:38;;;;;;;12.40;8.20;;;5.50;84.70;;;;;;10825266;32;20067;-71
2021/12/10 05:16:44;;;;;;;10.82;7.07;;;5.50;84.50;;;;;;10825694;33;20438;-71
2021/12/10 05:22:48;;;;;;;12.25;7.82;;;5.40;84.40;;;;;;10825643;32;20016;-71
2021/12/10 05:28:51;;;;;;;10.85;7.82;;;5.50;84.30;;;;;;10825486;32;20058;-70
2021/12/10 05:35:09;;;;;;;13.45;9.77;;;5.50;84.40;;;;;;10825252;32;20401;-71
2021/12/10 05:41:11;;;;;;;11.48;7.65;;;5.50;84.20;;;;;;10825176;32;20024;-71
2021/12/10 05:47:48;;;;;;;11.32;8.20;;;5.60;84.00;;;;;;10824741;33;20038;-71
2021/12/10 05:53:51;;;;;;;11.80;8.88;;;5.60;83.70;;;;;;10809166;33;20036;-71
2021/12/10 05:59:53;;;;;;;10.48;6.93;;;5.60;83.60;;;;;;10824782;33;20336;-71
2021/12/10 06:05:56;;;;;;;11.30;8.23;;;5.70;83.40;;;;;;10824631;33;20020;-71
2021/12/10 06:11:58;;;;;;;11.95;8.80;;;5.40;82.90;;;;;;10824454;32;20047;-71
2021/12/10 06:18:01;;;;;;;13.65;9.65;;;5.10;84.00;;;;;;10824277;32;20036;-71
2021/12/10 06:24:04;;;;;;;10.02;7.85;;;5.30;83.90;;;;;;10814104;33;20032;-71
2021/12/10 06:30:07;;;;;;;16.85;10.70;;;5.70;83.40;;;;;;10830494;33;20028;-71
2021/12/10 06:36:10;;;;;;;11.85;8.15;;;5.90;83.30;;;;;;10830341;33;20447;-71
2021/12/10 06:42:35;;;;;;;16.15;12.60;;;6.00;82.80;;;;;;10829168;32;20024;-71
2021/12/10 06:48:38;;;;;;;17.08;11.85;;;5.90;82.60;;;;;;10829950;33;20077;-71
2021/12/10 06:54:40;;;;;;;16.40;10.45;;;6.10;82.20;;;;;;10829716;33;20032;-71
2021/12/10 07:00:58;;;;;;;10.18;7.53;;;6.10;81.90;;;;;;10829575;33;20020;-71
2021/12/10 07:07:00;;;;;;;11.75;8.27;;;6.10;81.80;;;;;;10829468;33;20047;-71
2021/12/10 07:13:06;;;;;;;16.08;12.20;;;6.20;81.60;;;;;;10821097;33;20070;-71
2021/12/10 07:19:08;;;;;;;16.62;11.40;;;6.20;81.40;;;;;;10825917;33;20036;-71
2021/12/10 07:25:10;;;;;;;13.13;9.27;;;6.30;81.50;;;;;;10828393;33;20055;-71
2021/12/10 07:31:14;;;;;;;15.80;12.52;;;6.40;81.50;;;;;;10825010;33;20032;-71
2021/12/10 07:37:36;;;;;;;15.35;10.70;;;6.40;81.30;;;;;;10824421;33;20028;-71
2021/12/10 07:43:49;;;;;;;18.25;14.48;;;6.60;81.20;;;;;;10823596;32;20400;-71
2021/12/10 07:49:53;;;;;;;20.85;18.25;;;6.60;81.20;;;;;;10828049;33;20036;-70
2021/12/10 07:56:01;;;;;;;22.30;16.73;;;6.90;81.30;;;;;;10826408;33;20328;-71
2021/12/10 08:02:04;;;;;;;30.02;23.90;;;7.10;80.80;;;;;;10827670;33;20050;-70
2021/12/10 08:08:06;;;;;;;23.38;17.87;;;7.10;80.80;;;;;;10807764;33;20458;-70
2021/12/10 08:14:08;;;;;;;22.75;16.30;;;7.20;80.90;;;;;;10789731;33;20443;-71
2021/12/10 08:20:13;;;;;;;17.73;13.07;;;7.30;81.30;;;;;;10790266;33;20032;-71
2021/12/10 08:26:16;;;;;;;18.15;14.10;;;7.40;82.30;;;;;;10790169;33;20415;-70
2021/12/10 08:32:21;;;;;;;17.00;12.80;;;7.50;82.80;;;;;;10789666;33;20340;-71
2021/12/10 08:45:52;;;;;;;13.62;11.32;;;7.70;82.80;;;;;;10611867;33;20033;-71
2021/12/10 08:51:56;;;;;;;17.12;11.75;;;7.70;82.30;;;;;;10641538;33;20030;-71
2021/12/10 08:57:59;;;;;;;13.05;8.57;;;7.90;82.60;;;;;;10641966;33;20053;-71
2021/12/10 09:04:04;;;;;;;13.10;8.73;;;7.70;83.20;;;;;;10641509;33;20042;-70
2021/12/10 09:10:09;;;;;;;14.70;10.30;;;7.70;84.40;;;;;;10641291;33;20052;-71
2021/12/10 09:16:21;;;;;;;12.10;9.40;;;8.00;84.00;;;;;;10697650;32;20064;-71
2021/12/10 09:22:23;;;;;;;10.57;7.78;;;8.10;83.90;;;;;;10795905;33;20043;-70
2021/12/10 09:28:26;;;;;;;13.88;8.70;;;8.00;83.50;;;;;;10825160;33;20028;-71
2021/12/10 09:34:28;;;;;;;10.65;7.05;;;7.90;84.60;;;;;;10824979;33;20032;-71
2021/12/10 09:41:02;;;;;;;12.98;7.62;;;8.20;84.50;;;;;;10824950;33;20028;-71
2021/12/10 09:47:09;;;;;;;9.30;6.37;;;8.40;84.00;;;;;;10826422;27;20388;-70
2021/12/10 09:53:12;;;;;;;18.85;7.85;;;8.60;83.80;;;;;;10824763;33;20043;-71
2021/12/10 09:59:16;;;;;;;9.25;6.47;;;8.60;84.00;;;;;;10820973;33;20024;-71
2021/12/10 10:05:18;;;;;;;10.05;7.72;;;8.70;83.90;;;;;;10811102;33;20051;-74
2021/12/10 10:11:25;;;;;;;10.70;6.10;;;8.70;84.10;;;;;;10820879;33;20028;-74
2021/12/10 10:17:27;;;;;;;11.30;9.55;;;8.60;84.10;;;;;;10823486;33;20401;-74
2021/12/10 10:23:29;;;;;;;9.00;6.22;;;8.50;83.90;;;;;;10821979;33;20031;-74
2021/12/10 10:36:18;;;;;;;10.68;6.93;;;8.70;84.00;;;;;;10823438;33;20417;-73
2021/12/10 10:42:25;;;;;;;9.57;5.97;;;8.70;84.40;;;;;;10822347;32;20016;-72
2021/12/10 10:48:28;;;;;;;7.80;5.15;;;8.40;84.00;;;;;;10819914;33;20032;-71
2021/12/10 10:54:31;;;;;;;9.30;5.62;;;8.70;84.40;;;;;;10820791;33;20054;-71
2021/12/10 11:00:44;;;;;;;8.02;4.50;;;8.90;84.10;;;;;;10823341;32;20050;-72
2021/12/10 11:06:51;;;;;;;8.73;4.37;;;9.20;83.80;;;;;;10818926;32;20388;-71
2021/12/10 11:12:53;;;;;;;11.82;6.03;;;9.50;83.60;;;;;;10829377;33;20071;-71
2021/12/10 11:19:07;;;;;;;6.57;3.87;;;9.60;83.40;;;;;;10828989;33;20024;-71
2021/12/10 11:25:39;;;;;;;7.47;3.37;;;9.70;83.20;;;;;;10825803;33;20059;-71
2021/12/10 11:31:41;;;;;;;5.70;3.17;;;9.70;82.70;;;;;;10828180;33;20024;-71
2021/12/10 11:38:08;;;;;;;5.97;2.85;;;9.50;83.20;;;;;;10828204;33;20062;-70
2021/12/10 11:45:04;;;;;;;5.07;2.97;;;9.90;83.20;;;;;;10916714;32;20060;-70
2021/12/10 11:51:18;;;;;;;5.35;3.05;;;10.20;82.80;;;;;;11021478;32;20026;-70
2021/12/10 11:57:35;;;;;;;6.32;3.47;;;10.20;82.80;;;;;;11003339;32;20320;-70
2021/12/10 12:03:37;;;;;;;6.87;3.75;;;10.00;83.20;;;;;;11021438;32;20338;-70
2021/12/10 12:09:42;;;;;;;3.95;2.53;;;9.90;82.80;;;;;;10986130;32;20061;-70
2021/12/10 12:15:55;;;;;;;6.95;2.53;;;9.90;83.00;;;;;;10979067;32;20053;-70
2021/12/10 12:23:30;;;;;;;8.02;3.50;;;10.00;83.10;;;;;;10979369;32;20030;-70
2021/12/10 12:28:24;;;;;;;4.20;2.50;;;10.20;82.70;;;;;;10982522;32;20056;-70
2021/12/10 12:34:28;;;;;;;2.85;1.85;;;10.30;82.70;;;;;;10975677;32;20019;-70
2021/12/10 12:40:29;;;;;;;4.68;3.12;;;10.40;82.50;;;;;;10965037;32;20045;-70
2021/12/10 12:46:32;;;;;;;5.57;2.10;;;10.30;82.20;;;;;;10850667;32;20322;-72
2021/12/10 12:52:50;;;;;;;4.20;2.22;;;10.20;82.50;;;;;;10826436;33;20062;-73
2021/12/10 12:59:06;;;;;;;3.87;2.50;;;10.30;82.60;;;;;;10826108;33;20028;-73
2021/12/10 13:05:09;;;;;;;4.00;2.10;;;10.40;82.30;;;;;;10824155;33;20028;-73
2021/12/10 13:11:18;;;;;;;4.03;2.10;;;10.50;82.20;;;;;;10822973;33;20047;-72
2021/12/10 13:17:23;;;;;;;6.40;4.03;;;10.60;81.90;;;;;;10809942;33;20028;-73
2021/12/10 13:23:43;;;;;;;4.87;2.90;;;10.70;81.70;;;;;;10825438;33;20024;-72
2021/12/10 13:29:46;;;;;;;4.45;2.50;;;10.70;81.50;;;;;;10822644;33;20438;-72
2021/12/10 13:35:49;;;;;;;5.78;3.60;;;10.60;81.60;;;;;;10811963;33;20051;-72
2021/12/10 13:41:51;;;;;;;6.50;3.53;;;10.60;81.70;;;;;;10821520;32;20278;-72
2021/12/10 13:48:04;;;;;;;6.57;3.37;;;10.50;81.90;;;;;;10824485;33;20020;-72
2021/12/10 13:54:10;;;;;;;8.48;4.20;;;10.50;82.00;;;;;;10812048;33;20071;-72
2021/12/10 14:00:17;;;;;;;7.03;3.87;;;10.10;82.30;;;;;;10787606;33;20329;-72
2021/12/10 14:06:19;;;;;;;6.85;4.32;;;10.00;82.60;;;;;;10787817;33;20025;-73
2021/12/10 14:12:29;;;;;;;9.23;4.95;;;10.10;82.30;;;;;;10787684;33;20448;-72
2021/12/10 14:18:36;;;;;;;7.95;4.37;;;10.10;81.90;;;;;;10787462;33;20062;-73
2021/12/10 14:24:45;;;;;;;6.43;3.50;;;10.00;81.80;;;;;;10789853;33;20067;-73
2021/12/10 14:30:54;;;;;;;6.57;3.27;;;10.00;81.70;;;;;;10786745;33;20027;-72
2021/12/10 14:37:04;;;;;;;;;;;9.80;81.70;;;;;;10774153;32;20024;-72
2021/12/10 14:43:08;;;;;;;7.80;4.12;;;9.70;81.80;;;;;;10789379;33;19924;-72
2021/12/10 14:49:52;;;;;;;7.82;3.87;;;9.70;81.70;;;;;;10793004;33;20047;-73
2021/12/10 14:55:54;;;;;;;10.93;5.75;;;9.70;81.70;;;;;;10807457;33;20028;-73
2021/12/10 15:02:14;;;;;;;10.50;5.10;;;9.70;81.70;;;;;;10829591;32;20024;-73
2021/12/10 15:08:55;;;;;;;5.90;3.58;;;9.60;81.70;;;;;;10829186;33;20028;-72
2021/12/10 15:14:59;;;;;;;6.65;4.35;;;9.60;81.80;;;;;;10825710;33;20050;-72
2021/12/10 15:21:28;;;;;;;9.23;6.22;;;9.60;82.00;;;;;;10827925;33;20306;-72
2021/12/10 15:27:38;;;;;;;8.97;5.23;;;9.50;82.00;;;;;;10824474;33;20037;-72
2021/12/10 15:33:41;;;;;;;;;;;9.50;82.10;;;;;;10824714;33;20043;-72
2021/12/10 15:39:46;;;;;;;9.13;5.82;;;9.40;82.10;;;;;;10824630;33;19931;-74
2021/12/10 15:45:53;;;;;;;8.73;6.25;;;9.30;82.00;;;;;;10802084;33;20067;-75
2021/12/10 15:52:23;;;;;;;13.25;8.35;;;9.30;82.50;;;;;;10790827;33;20396;-73
2021/12/10 15:58:30;;;;;;;10.90;7.37;;;9.30;82.70;;;;;;10790179;33;20063;-72
2021/12/10 16:04:40;;;;;;;10.05;6.43;;;9.30;82.50;;;;;;10790551;33;20016;-72
2021/12/10 16:10:49;;;;;;;9.68;6.90;;;9.30;82.50;;;;;;10825356;32;20027;-73
2021/12/10 16:16:52;;;;;;;14.63;9.05;;;9.20;82.80;;;;;;10826781;33;20035;-73
2021/12/10 16:22:55;;;;;;;24.80;15.45;;;9.20;83.20;;;;;;10827246;33;20024;-73
2021/12/10 16:29:12;;;;;;;17.20;9.85;;;9.20;82.90;;;;;;10814208;33;20052;-73
2021/12/10 16:35:20;;;;;;;20.95;12.43;;;9.20;83.00;;;;;;10822880;33;20039;-73
2021/12/10 16:41:38;;;;;;;15.82;9.75;;;9.10;83.10;;;;;;10826832;33;20054;-73
2021/12/10 16:47:48;;;;;;;18.05;10.50;;;9.10;83.10;;;;;;7823110;33;97025073;-73
2021/12/10 16:54:02;;;;;;;13.45;7.45;;;9.00;83.20;;;;;;10712020;33;20033;-73
2021/12/10 17:00:19;;;;;;;12.13;6.75;;;8.80;83.40;;;;;;10713717;33;20036;-73
2021/12/10 17:06:23;;;;;;;11.55;6.75;;;8.80;83.60;;;;;;10713651;33;20059;-73
2021/12/10 17:12:28;;;;;;;12.02;8.07;;;8.80;83.80;;;;;;10753446;33;20035;-74
2021/12/10 17:18:31;;;;;;;9.68;7.03;;;8.90;83.70;;;;;;10772740;33;20032;-73
2021/12/10 17:24:50;;;;;;;10.25;6.35;;;8.80;83.80;;;;;;10788932;33;20033;-74
2021/12/10 17:30:59;;;;;;;9.45;6.05;;;8.80;83.70;;;;;;10788567;33;20059;-74
2021/12/10 17:37:07;;;;;;;10.60;6.70;;;8.80;83.60;;;;;;10784535;33;20032;-73
2021/12/10 17:43:13;;;;;;;10.80;7.57;;;8.70;83.70;;;;;;10802821;27;20094;-74
2021/12/10 17:49:20;;;;;;;10.43;7.30;;;8.60;83.50;;;;;;10811956;33;20034;-74
2021/12/10 17:55:27;;;;;;;14.43;9.30;;;8.50;83.90;;;;;;10807605;33;20024;-72
2021/12/10 18:01:38;;;;;;;8.65;5.65;;;8.50;84.10;;;;;;10824646;33;20469;-72
2021/12/10 18:08:16;;;;;;;10.77;6.68;;;8.50;84.00;;;;;;10824097;33;20024;-72
2021/12/10 18:14:40;;;;;;;15.73;9.32;;;8.70;84.00;;;;;;10675824;33;20025;-72
2021/12/10 18:20:45;;;;;;;11.55;7.68;;;8.60;83.50;;;;;;10680004;33;20029;-72
2021/12/10 18:26:53;;;;;;;9.50;6.18;;;8.30;83.70;;;;;;10680923;33;20048;-72
2021/12/10 18:33:33;;;;;;;11.80;7.65;;;8.20;84.30;;;;;;10677433;32;20042;-71
2021/12/10 18:39:46;;;;;;;9.10;6.78;;;8.30;84.40;;;;;;10680008;33;20051;-72
2021/12/10 18:46:04;;;;;;;14.13;7.47;;;8.30;84.40;;;;;;10816279;32;20050;-74
2021/12/10 18:52:24;;;;;;;10.70;5.82;;;8.20;83.50;;;;;;10840273;32;20047;-74
2021/12/10 18:58:32;;;;;;;8.68;5.85;;;8.00;84.00;;;;;;10792924;33;20028;-74
2021/12/10 19:04:43;;;;;;;9.30;5.10;;;8.00;84.10;;;;;;10792572;33;20024;-74
2021/12/10 19:10:52;;;;;;;9.20;6.15;;;8.00;84.10;;;;;;10792794;32;20028;-74
2021/12/10 19:17:08;;;;;;;7.45;5.03;;;8.10;84.30;;;;;;10789521;33;20028;-74
2021/12/10 19:23:16;;;;;;;8.38;5.30;;;8.20;84.10;;;;;;10792181;33;20029;-74
2021/12/10 19:29:26;;;;;;;9.20;6.07;;;8.20;83.80;;;;;;10791019;33;20013;-74
2021/12/10 19:35:32;;;;;;;;;;;8.10;83.80;;;;;;10792025;33;20029;-74
2021/12/10 19:41:42;;;;;;;9.88;6.93;;;8.00;84.00;;;;;;10791466;32;19954;-74
2021/12/10 19:47:49;;;;;;;10.80;6.85;;;7.90;84.20;;;;;;10827894;32;20384;-73
2021/12/10 19:53:58;;;;;;;7.95;4.90;;;7.90;84.00;;;;;;10824829;33;20062;-74
2021/12/10 20:00:17;;;;;;;9.73;6.32;;;7.80;84.00;;;;;;10824814;33;20020;-71
2021/12/10 20:06:47;;;;;;;10.25;7.45;;;7.80;83.80;;;;;;10816702;33;20155;-71
2021/12/10 20:12:54;;;;;;;11.05;7.75;;;7.70;83.60;;;;;;10791622;33;20459;-71
2021/12/10 20:19:28;;;;;;;11.23;6.93;;;7.70;83.40;;;;;;10788224;33;20036;-71
2021/12/10 20:25:34;;;;;;;11.88;9.10;;;7.60;83.70;;;;;;10792730;32;20032;-71
2021/12/10 20:31:57;;;;;;;9.32;6.50;;;7.60;83.50;;;;;;10791606;33;20147;-71
2021/12/10 20:38:19;;;;;;;8.63;5.00;;;7.60;83.80;;;;;;10755659;33;20063;-74
2021/12/10 20:44:26;;;;;;;13.35;8.38;;;7.50;84.00;;;;;;10754252;33;20082;-74
2021/12/10 20:50:55;;;;;;;10.52;6.53;;;7.50;83.90;;;;;;10755409;33;20349;-74
2021/12/10 20:57:05;;;;;;;13.43;8.02;;;7.40;83.60;;;;;;10741869;33;20032;-74
2021/12/10 21:03:14;;;;;;;12.82;8.13;;;7.30;83.40;;;;;;10648864;33;20284;-74
2021/12/10 21:09:19;;;;;;;;;;;7.30;83.90;;;;;;10641907;33;20034;-74
2021/12/10 21:15:29;;;;;;;13.32;6.75;;;7.30;83.80;;;;;;10767224;33;20296;-74
2021/12/10 21:21:39;;;;;;;11.43;6.97;;;7.30;83.70;;;;;;10788934;33;20035;-74
2021/12/10 21:27:53;;;;;;;11.90;7.35;;;7.30;83.90;;;;;;10788912;33;20020;-74
2021/12/10 21:34:00;;;;;;;9.90;7.07;;;7.40;84.10;;;;;;10788703;33;20419;-73
2021/12/10 21:40:17;;;;;;;10.52;7.10;;;7.60;84.10;;;;;;10788390;33;20059;-73
2021/12/10 21:46:27;;;;;;;10.18;6.80;;;7.80;84.00;;;;;;10788453;33;20372;-73
2021/12/10 21:52:37;;;;;;;12.70;7.95;;;7.80;83.80;;;;;;10774834;32;20094;-73
2021/12/10 21:58:49;;;;;;;12.18;8.63;;;7.80;83.60;;;;;;10788041;33;20056;-74
2021/12/10 22:04:55;;;;;;;10.63;7.82;;;7.80;83.50;;;;;;10787935;33;20032;-73
2021/12/10 22:11:28;;;;;;;12.93;9.73;;;7.70;83.50;;;;;;10787721;33;20389;-73
2021/12/10 22:17:30;;;;;;;11.73;6.70;;;7.80;83.40;;;;;;10774875;32;20383;-73
2021/12/10 22:23:34;;;;;;;15.02;8.85;;;7.70;83.30;;;;;;10787594;33;20039;-74
2021/12/10 22:29:41;;;;;;;16.17;11.55;;;7.60;83.60;;;;;;10787447;33;20020;-73
2021/12/10 22:35:52;;;;;;;12.40;8.62;;;7.70;84.00;;;;;;10811377;33;20028;-73
2021/12/10 22:42:04;;;;;;;16.42;11.45;;;7.70;84.10;;;;;;10819849;32;20435;-73
2021/12/10 22:48:13;;;;;;;20.40;10.93;;;7.70;83.90;;;;;;10823810;33;20094;-73
2021/12/10 22:54:27;;;;;;;14.43;8.75;;;7.70;83.30;;;;;;10823464;33;20051;-73
2021/12/10 23:00:39;;;;;;;10.55;6.87;;;7.60;83.20;;;;;;10823389;33;20055;-74
2021/12/10 23:06:43;;;;;;;11.55;8.27;;;7.60;83.20;;;;;;10824650;32;20028;-71
2021/12/10 23:12:57;;;;;;;8.95;5.93;;;7.40;83.50;;;;;;10829647;32;20321;-71
2021/12/10 23:19:30;;;;;;;11.15;7.22;;;7.30;83.50;;;;;;10829189;33;20031;-72
2021/12/10 23:25:41;;;;;;;10.85;7.68;;;7.30;83.70;;;;;;10829163;33;20042;-71
2021/12/10 23:31:46;;;;;;;11.95;7.18;;;7.30;83.60;;;;;;10828932;33;20046;-71
2021/12/10 23:37:56;;;;;;;11.10;6.55;;;7.20;83.40;;;;;;10828833;33;20438;-71
2021/12/10 23:44:13;;;;;;;15.45;8.25;;;7.00;83.80;;;;;;10828377;33;20023;-71
2021/12/10 23:50:18;;;;;;;12.35;7.82;;;7.00;84.20;;;;;;10828382;33;20008;-71
2021/12/10 23:56:21;;;;;;;15.10;10.30;;;7.10;84.30;;;;;;10828313;32;20070;-71
